Terminal Aerodrome Forecast
Issued by NWS

Home | Current Version | Previous Version | Text Only | Print | Product List | Glossary On
Versions: 1 2 3 4 5 6 7 8 9 10 11 12 13 14 15 16 17 18 19 20
270
FTUS45 KABQ 041720
TAFTCC
TAF
KTCC 041720Z 0418/0518 VRB05KT P6SM SKC
     FM050400 25010KT P6SM SKC
     FM051730 25013G23KT P6SM FEW200=

USA.gov is the U.S. government's official web portal to all federal, state and local government web resources and services.